createdAt,value
2023-05-20T00:02:35.398Z,99549.98
2023-05-20T00:12:38.953Z,99546.55
2023-05-20T00:22:42.561Z,99542.50
2023-05-20T00:32:46.443Z,99534.86
2023-05-20T00:42:50.363Z,99526.89
2023-05-20T00:52:54.824Z,99517.16
2023-05-20T01:02:58.542Z,99519.67
2023-05-20T01:13:04.808Z,99515.34
2023-05-20T01:23:08.792Z,99510.95
2023-05-20T01:33:14.680Z,99507.14
2023-05-20T01:43:18.977Z,99508.92
2023-05-20T01:53:22.540Z,99500.98
2023-05-20T02:03:35.545Z,99494.23
2023-05-20T02:13:39.387Z,99496.45
2023-05-20T02:23:42.973Z,99503.36
2023-05-20T02:33:46.519Z,99498.84
2023-05-20T02:43:50.117Z,99494.76
2023-05-20T02:53:54.378Z,99504.06
2023-05-20T03:03:58.437Z,99511.92
2023-05-20T03:14:03.370Z,99510.17
2023-05-20T03:24:07.434Z,99510.77
2023-05-20T03:34:10.948Z,99506.72
2023-05-20T03:44:14.592Z,99515.27
2023-05-20T03:54:18.583Z,99519.23
2023-05-20T04:04:25.837Z,99524.80
2023-05-20T04:14:29.394Z,99533.13
2023-05-20T04:24:32.927Z,99535.09
2023-05-20T04:34:36.794Z,99534.80
2023-05-20T04:44:42.306Z,99544.00
2023-05-20T04:55:05.977Z,99544.55
2023-05-20T05:05:09.621Z,99543.70
2023-05-20T05:15:13.540Z,99536.42
2023-05-20T05:25:17.467Z,99531.88
2023-05-20T05:35:24.774Z,99534.20
2023-05-20T05:45:31.954Z,99540.11
2023-05-20T05:55:36.266Z,99539.03
2023-05-20T06:05:40.111Z,99535.77
2023-05-20T06:15:44.028Z,99535.69
2023-05-20T06:25:48.444Z,99537.85
2023-05-20T06:35:52.004Z,99535.13
2023-05-20T06:45:55.714Z,99539.27
2023-05-20T06:55:59.510Z,99532.82
2023-05-20T07:06:02.796Z,99537.71
2023-05-20T07:16:10.483Z,99526.33
2023-05-20T07:26:15.051Z,99522.87
2023-05-20T07:36:18.761Z,99523.70
2023-05-20T07:46:22.065Z,99516.75
2023-05-20T07:56:29.238Z,99505.48
2023-05-20T08:06:33.181Z,99500.27
2023-05-20T08:16:36.800Z,99494.45
2023-05-20T08:26:43.859Z,99486.86
2023-05-20T08:36:47.649Z,99485.69
2023-05-20T08:46:51.912Z,99484.46
2023-05-20T08:56:56.593Z,99478.30
2023-05-20T09:07:03.311Z,99483.77
2023-05-20T09:17:12.310Z,99486.79
2023-05-20T09:27:16.594Z,99483.45
2023-05-20T09:37:22.188Z,99480.50
2023-05-20T09:47:27.230Z,99481.74
2023-05-20T09:57:31.840Z,99475.83
2023-05-20T10:08:08.497Z,99464.24
2023-05-20T10:18:19.502Z,99469.40
2023-05-20T10:28:28.927Z,99467.19
2023-05-20T10:38:32.616Z,99459.11
2023-05-20T10:48:36.497Z,99442.73
2023-05-20T10:58:44.335Z,99432.17
2023-05-20T11:08:47.896Z,99422.43
2023-05-20T11:18:51.600Z,99410.02
2023-05-20T11:28:56.680Z,99397.98
2023-05-20T11:39:05.113Z,99391.17
2023-05-20T11:49:09.456Z,99375.52
2023-05-20T11:59:15.441Z,99366.67
2023-05-20T12:09:23.089Z,99360.83
2023-05-20T12:19:28.135Z,99351.52
2023-05-20T12:29:32.127Z,99349.67
2023-05-20T12:39:36.219Z,99342.52
2023-05-20T12:49:40.056Z,99335.23
2023-05-20T12:59:43.252Z,99322.40
2023-05-20T13:09:46.952Z,99309.65
2023-05-20T13:19:50.851Z,99297.07
2023-05-20T13:29:54.502Z,99296.39
2023-05-20T13:39:58.590Z,99282.30
2023-05-20T13:50:07.771Z,99275.59
2023-05-20T14:00:13.375Z,99274.05
2023-05-20T14:10:17.312Z,99265.86
2023-05-20T14:20:24.400Z,99253.27
2023-05-20T14:30:32.028Z,99245.93
2023-05-20T14:40:36.083Z,99235.65
2023-05-20T14:50:40.221Z,99232.53
2023-05-20T15:00:43.397Z,99227.03
2023-05-20T15:10:49.978Z,99211.01
2023-05-20T15:32:55.649Z,99206.95
2023-05-20T15:42:59.884Z,99193.19
2023-05-20T15:53:07.168Z,99189.98
2023-05-20T16:03:10.907Z,99184.58
2023-05-20T16:13:14.977Z,99181.11
2023-05-20T16:23:22.131Z,99172.98
2023-05-20T16:33:31.510Z,99183.44
2023-05-20T16:43:35.162Z,99177.15
2023-05-20T16:53:39.113Z,99175.10
2023-05-20T17:03:42.776Z,99178.09
2023-05-20T17:13:46.587Z,99184.02
2023-05-20T17:23:50.639Z,99182.02
2023-05-20T17:33:54.623Z,99184.16
2023-05-20T17:43:58.528Z,99179.19
2023-05-20T17:54:05.896Z,99181.21
2023-05-20T18:04:13.485Z,99179.67
2023-05-20T18:24:20.573Z,99176.60
2023-05-20T18:34:28.328Z,99182.52
2023-05-20T18:54:36.288Z,99196.82
2023-05-20T19:04:40.261Z,99205.02
2023-05-20T19:14:44.508Z,99214.92
2023-05-20T19:24:48.216Z,99208.47
2023-05-20T19:34:52.200Z,99201.02
2023-05-20T19:44:55.950Z,99204.03
2023-05-20T19:55:00.547Z,99206.17
2023-05-20T20:05:06.787Z,99217.80
2023-05-20T20:15:12.458Z,99220.29
2023-05-20T20:25:17.197Z,99219.95
2023-05-20T20:35:21.222Z,99218.90
2023-05-20T20:45:24.890Z,99229.23
2023-05-20T20:55:28.878Z,99229.14
2023-05-20T21:05:35.158Z,99225.14
2023-05-20T21:15:39.093Z,99225.29
2023-05-20T21:25:42.675Z,99219.75
2023-05-20T21:35:46.359Z,99223.48
2023-05-20T21:45:50.369Z,99229.62
2023-05-20T21:55:54.476Z,99227.13
2023-05-20T22:05:57.915Z,99224.03
2023-05-20T22:26:09.367Z,99224.77
2023-05-20T22:36:13.403Z,99214.26
2023-05-20T22:46:17.647Z,99211.51
2023-05-20T22:56:21.779Z,99210.63
2023-05-20T23:06:26.396Z,99205.58
2023-05-20T23:16:31.142Z,99198.20
2023-05-20T23:26:37.100Z,99195.48
2023-05-20T23:36:45.216Z,99196.56
2023-05-20T23:47:03.587Z,99202.58
2023-05-20T23:57:07.982Z,99200.14
